Terminal Aerodrome Forecast
Issued by NWS Billings, MT

Home | Current Version | Previous Version | Text Only | Print | Product List | Glossary Off
Versions: 1 2 3 4 5 6 7 8 9 10 11 12 13 14 15 16 17 18 19 20 21 22 23 24 25 26 27

166
FTUS45 KBYZ 210528
TAFMLS
TAF
KMLS 210528Z 2106/2206 29018G25KT P6SM SCT100
     FM211600 28024G40KT P6SM BKN080
     FM212100 29020G32KT P6SM SKC
     FM220200 25015KT P6SM SKC=

USA.gov is the U.S. government's official web portal to all federal, state and local government web resources and services.